Time;durP1;ratioP1;P1;durP2;ratioP2;P2;SDS_P1;SDS_P2;PMS_P1;PMS_P2;Temp;Humidity;BMP_temperature;BMP_pressure;BME280_temperature;BME280_humidity;BME280_pressure;Samples;Min_cycle;Max_cycle;Signal;HPM_P1;HPM_P2
2022/07/13 00:02:22;;;;;;;6.37;2.57;;;24.20;69.90;;;;;;5012109;28;20192;-73
2022/07/13 00:04:48;;;;;;;3.03;2.60;;;24.20;70.00;;;;;;5015495;28;20212;-72
2022/07/13 00:07:14;;;;;;;3.20;2.77;;;24.20;70.00;;;;;;5014119;28;20192;-72
2022/07/13 00:09:39;;;;;;;3.23;2.93;;;24.20;69.90;;;;;;5011019;28;20616;-72
2022/07/13 00:12:05;;;;;;;4.30;2.90;;;24.10;70.00;;;;;;5010391;28;20176;-72
2022/07/13 00:14:31;;;;;;;3.53;3.23;;;24.00;70.70;;;;;;5010312;28;20758;-72
2022/07/13 00:16:56;;;;;;;3.10;2.80;;;23.90;70.60;;;;;;5017434;28;20189;-72
2022/07/13 00:19:22;;;;;;;2.87;2.67;;;23.90;71.20;;;;;;5012958;28;20498;-73
2022/07/13 00:21:48;;;;;;;4.07;3.00;;;23.90;71.30;;;;;;5013562;28;20279;-72
2022/07/13 00:24:14;;;;;;;4.63;2.87;;;23.80;71.40;;;;;;5013576;28;20697;-72
2022/07/13 00:26:40;;;;;;;3.00;2.73;;;23.80;71.70;;;;;;5011555;28;20547;-73
2022/07/13 00:29:05;;;;;;;3.23;2.93;;;23.80;71.80;;;;;;5010429;28;20471;-73
2022/07/13 00:31:31;;;;;;;3.80;3.17;;;23.70;71.90;;;;;;5013249;28;20455;-72
2022/07/13 00:33:56;;;;;;;3.10;2.80;;;23.70;72.40;;;;;;5011315;28;20247;-73
2022/07/13 00:36:22;;;;;;;6.17;3.07;;;23.70;72.50;;;;;;5015625;28;20695;-72
2022/07/13 00:38:48;;;;;;;4.30;3.23;;;23.80;72.60;;;;;;5011922;28;20754;-72
2022/07/13 00:41:14;;;;;;;4.87;3.03;;;23.70;73.10;;;;;;5013896;28;20679;-73
2022/07/13 00:43:39;;;;;;;2.70;2.50;;;23.40;73.50;;;;;;5009783;28;20212;-72
2022/07/13 00:46:05;;;;;;;2.90;2.60;;;23.50;73.70;;;;;;5017312;28;20264;-72
2022/07/13 00:48:32;;;;;;;4.57;2.90;;;23.50;73.80;;;;;;5011138;28;20189;-73
2022/07/13 00:50:59;;;;;;;2.83;2.60;;;23.50;73.80;;;;;;5012975;28;20327;-72
2022/07/13 00:53:25;;;;;;;2.70;2.50;;;23.50;73.60;;;;;;5008739;28;20442;-73
2022/07/13 00:55:50;;;;;;;2.87;2.67;;;23.50;73.20;;;;;;5008316;28;20813;-73
2022/07/13 00:58:16;;;;;;;2.80;2.60;;;23.50;72.70;;;;;;5011306;28;20189;-72
2022/07/13 01:00:42;;;;;;;3.10;2.70;;;23.50;73.50;;;;;;5012434;28;20192;-72
2022/07/13 01:03:07;;;;;;;5.60;3.20;;;23.40;72.60;;;;;;5012991;28;20835;-73
2022/07/13 01:05:33;;;;;;;3.00;2.70;;;23.50;72.60;;;;;;5011003;28;20219;-72
2022/07/13 01:08:03;;;;;;;2.80;2.60;;;23.60;72.50;;;;;;4996071;28;20192;-73
2022/07/13 01:10:29;;;;;;;3.57;2.47;;;23.60;72.20;;;;;;5010676;28;20485;-73
2022/07/13 01:12:54;;;;;;;3.07;2.60;;;23.50;71.80;;;;;;5009871;28;20451;-73
2022/07/13 01:15:22;;;;;;;7.50;3.43;;;23.50;72.10;;;;;;5011138;28;20197;-73
2022/07/13 01:17:48;;;;;;;4.93;3.13;;;23.50;72.10;;;;;;5008319;28;20260;-73
2022/07/13 01:20:15;;;;;;;2.63;2.43;;;23.50;72.40;;;;;;5011365;28;21155;-73
2022/07/13 01:22:49;;;;;;;2.73;2.53;;;23.50;72.10;;;;;;5011563;28;20524;-72
2022/07/13 01:25:16;;;;;;;2.97;2.40;;;23.60;72.20;;;;;;5012296;28;20467;-72
2022/07/13 01:27:43;;;;;;;2.60;2.40;;;23.50;72.50;;;;;;5013854;28;20587;-72
2022/07/13 01:30:09;;;;;;;2.60;2.40;;;23.40;72.90;;;;;;5007638;28;20593;-72
2022/07/13 01:32:49;;;;;;;2.90;2.70;;;23.40;72.90;;;;;;5010453;28;20485;-72
2022/07/13 01:35:16;;;;;;;2.80;2.60;;;23.40;73.00;;;;;;5011784;28;20477;-72
2022/07/13 01:37:43;;;;;;;3.47;2.90;;;23.50;72.60;;;;;;5007895;28;20827;-73
2022/07/13 01:40:09;;;;;;;3.00;2.70;;;23.50;72.60;;;;;;5008639;28;20876;-72
2022/07/13 01:42:48;;;;;;;3.30;2.60;;;23.50;72.50;;;;;;5012672;28;20467;-72
2022/07/13 01:45:16;;;;;;;2.63;2.43;;;23.50;72.40;;;;;;5010734;28;20580;-72
2022/07/13 01:47:47;;;;;;;3.13;2.83;;;23.50;72.60;;;;;;5011600;28;20455;-73
2022/07/13 01:50:15;;;;;;;3.73;3.00;;;23.50;72.80;;;;;;5008274;28;20502;-72
2022/07/13 01:52:40;;;;;;;2.83;2.63;;;23.50;73.20;;;;;;5010014;28;21002;-73
2022/07/13 01:55:08;;;;;;;4.50;2.83;;;23.50;73.50;;;;;;5010777;28;20462;-73
2022/07/13 01:57:35;;;;;;;3.43;2.87;;;23.50;74.00;;;;;;5011611;28;20216;-73
2022/07/13 02:00:12;;;;;;;3.90;2.70;;;23.50;74.40;;;;;;5011537;28;20724;-73
2022/07/13 02:02:38;;;;;;;2.73;2.53;;;23.50;74.40;;;;;;5014674;28;21112;-73
2022/07/13 02:05:04;;;;;;;3.10;2.80;;;23.50;74.90;;;;;;5009081;28;20465;-73
2022/07/13 02:07:30;;;;;;;4.70;3.30;;;23.50;75.00;;;;;;5007386;28;20443;-73
2022/07/13 02:09:55;;;;;;;4.33;3.20;;;23.50;75.00;;;;;;5006293;28;21067;-73
2022/07/13 02:12:24;;;;;;;3.20;2.90;;;23.40;75.20;;;;;;5011123;28;20200;-73
2022/07/13 02:14:49;;;;;;;2.90;2.60;;;23.40;75.50;;;;;;5010213;28;20201;-71
2022/07/13 02:17:15;;;;;;;3.00;2.80;;;23.40;75.40;;;;;;5011423;28;20975;-71
2022/07/13 02:19:41;;;;;;;2.63;2.43;;;23.40;75.00;;;;;;5007451;28;20990;-71
2022/07/13 02:22:07;;;;;;;2.70;2.50;;;23.40;74.90;;;;;;5009087;28;20188;-71
2022/07/13 02:24:34;;;;;;;3.20;2.90;;;23.30;74.70;;;;;;5008405;28;20590;-70
2022/07/13 02:26:59;;;;;;;3.80;3.07;;;23.30;74.70;;;;;;5008266;28;20448;-70
2022/07/13 02:29:25;;;;;;;4.10;2.50;;;23.20;75.10;;;;;;5009244;28;20471;-71
2022/07/13 02:31:51;;;;;;;3.43;3.13;;;23.20;75.50;;;;;;5007489;28;20502;-73
2022/07/13 02:34:17;;;;;;;3.00;2.63;;;23.20;76.00;;;;;;5009051;28;20265;-73
2022/07/13 02:36:43;;;;;;;4.40;3.20;;;23.10;76.00;;;;;;5008440;28;20213;-73
2022/07/13 02:39:08;;;;;;;5.50;3.27;;;23.10;76.10;;;;;;5007541;28;20288;-73
2022/07/13 02:41:34;;;;;;;2.80;2.60;;;23.10;76.10;;;;;;5009650;28;20458;-72
2022/07/13 02:44:00;;;;;;;2.93;2.63;;;23.10;76.20;;;;;;5009884;28;20316;-72
2022/07/13 02:46:25;;;;;;;3.70;3.40;;;23.00;76.20;;;;;;5006991;28;20196;-72
2022/07/13 02:48:51;;;;;;;3.03;2.70;;;23.00;76.30;;;;;;5009400;28;20238;-72
2022/07/13 02:51:16;;;;;;;3.17;2.97;;;23.00;76.50;;;;;;5011068;28;20216;-72
2022/07/13 02:53:42;;;;;;;3.10;2.80;;;23.00;77.50;;;;;;5009661;28;20208;-72
2022/07/13 02:56:08;;;;;;;3.53;2.90;;;23.00;77.50;;;;;;5010047;28;20192;-72
2022/07/13 02:58:33;;;;;;;3.20;2.90;;;23.00;77.30;;;;;;5008949;28;20193;-72
2022/07/13 03:00:59;;;;;;;4.27;3.20;;;23.00;77.20;;;;;;5007980;28;20199;-72
2022/07/13 03:03:24;;;;;;;3.10;2.80;;;23.00;77.50;;;;;;5006468;28;20226;-72
2022/07/13 03:05:50;;;;;;;5.47;2.60;;;23.00;77.50;;;;;;5008616;28;20272;-72
2022/07/13 03:08:16;;;;;;;2.80;2.60;;;22.90;77.70;;;;;;4995267;28;20832;-71
2022/07/13 03:10:42;;;;;;;4.43;2.90;;;22.90;77.70;;;;;;5008530;28;20471;-71
2022/07/13 03:13:07;;;;;;;2.87;2.67;;;22.80;78.20;;;;;;5010753;28;20945;-71
2022/07/13 03:15:33;;;;;;;4.90;3.23;;;22.80;78.10;;;;;;5007033;28;20295;-71
2022/07/13 03:17:59;;;;;;;3.07;2.80;;;22.70;78.40;;;;;;4992919;28;20188;-71
2022/07/13 03:20:24;;;;;;;3.30;3.00;;;22.70;78.70;;;;;;5009377;28;20202;-71
2022/07/13 03:22:50;;;;;;;3.63;3.33;;;22.70;80.00;;;;;;5010358;28;20196;-71
2022/07/13 03:25:16;;;;;;;6.60;3.30;;;22.60;81.00;;;;;;5012323;28;20254;-71
2022/07/13 03:27:42;;;;;;;3.83;3.50;;;22.60;81.90;;;;;;5012924;28;20192;-72
2022/07/13 03:30:08;;;;;;;5.77;3.10;;;22.40;82.90;;;;;;5011465;28;21762;-72
2022/07/13 03:32:34;;;;;;;3.57;3.20;;;22.40;83.50;;;;;;5015231;28;20188;-72
2022/07/13 03:34:59;;;;;;;5.53;3.43;;;22.30;84.00;;;;;;5013263;28;20470;-72
2022/07/13 03:37:25;;;;;;;5.63;3.20;;;22.30;84.30;;;;;;5011802;28;20188;-71
2022/07/13 03:39:50;;;;;;;7.53;3.93;;;22.30;84.40;;;;;;5013424;28;20181;-72
2022/07/13 03:42:16;;;;;;;4.30;3.57;;;22.40;84.70;;;;;;5013133;28;20220;-72
2022/07/13 03:44:42;;;;;;;4.43;3.37;;;22.30;85.60;;;;;;5013585;28;20662;-72
2022/07/13 03:47:07;;;;;;;5.40;3.50;;;22.20;86.70;;;;;;5014420;28;20192;-72
2022/07/13 03:49:33;;;;;;;4.13;2.90;;;22.10;87.50;;;;;;5014659;28;20204;-72
2022/07/13 03:51:58;;;;;;;4.57;3.37;;;22.10;88.00;;;;;;5013458;28;20185;-71
2022/07/13 03:54:24;;;;;;;5.00;2.90;;;22.10;88.20;;;;;;5016359;28;20228;-72
2022/07/13 03:56:49;;;;;;;3.30;3.00;;;22.20;88.50;;;;;;5011824;28;20248;-72
2022/07/13 03:59:15;;;;;;;3.50;3.20;;;22.20;88.80;;;;;;5011019;28;20192;-72
2022/07/13 04:01:42;;;;;;;6.23;3.30;;;22.20;89.00;;;;;;5011833;28;20266;-72
2022/07/13 04:04:08;;;;;;;4.67;3.50;;;22.20;89.30;;;;;;5014379;28;20885;-72
2022/07/13 04:06:33;;;;;;;4.20;3.80;;;22.20;89.70;;;;;;5014229;28;20439;-72
2022/07/13 04:08:59;;;;;;;6.53;3.60;;;22.20;90.00;;;;;;5011552;28;20215;-72
2022/07/13 04:11:28;;;;;;;4.00;2.93;;;22.10;90.50;;;;;;5012545;28;20715;-72
2022/07/13 04:13:53;;;;;;;3.30;2.77;;;22.10;90.60;;;;;;5009631;28;20215;-73
2022/07/13 04:16:19;;;;;;;4.87;3.50;;;22.10;91.00;;;;;;5011195;28;20915;-73
2022/07/13 04:18:44;;;;;;;7.70;3.40;;;22.10;91.30;;;;;;5016058;28;20191;-72
2022/07/13 04:21:11;;;;;;;3.80;3.40;;;22.10;91.70;;;;;;5015718;28;20181;-73
2022/07/13 04:23:37;;;;;;;3.23;2.93;;;22.10;91.80;;;;;;5016063;28;20836;-72
2022/07/13 04:26:03;;;;;;;5.33;3.50;;;22.10;91.60;;;;;;4997073;28;20519;-71
2022/07/13 04:28:29;;;;;;;3.50;3.20;;;22.10;91.40;;;;;;5014409;28;20212;-71
2022/07/13 04:30:54;;;;;;;3.70;3.30;;;22.10;91.10;;;;;;5014918;28;20463;-71
2022/07/13 04:33:21;;;;;;;3.50;3.20;;;22.10;90.90;;;;;;5009739;28;20643;-71
2022/07/13 04:35:46;;;;;;;4.00;3.30;;;22.10;90.80;;;;;;5013887;28;20287;-71
2022/07/13 04:38:13;;;;;;;4.80;3.27;;;22.10;90.70;;;;;;5011837;28;20537;-71
2022/07/13 04:40:39;;;;;;;3.77;3.10;;;22.10;90.90;;;;;;5010338;28;20219;-72
2022/07/13 04:43:05;;;;;;;4.10;2.80;;;22.10;90.70;;;;;;5014075;28;20932;-71
2022/07/13 04:45:32;;;;;;;3.63;2.93;;;22.10;90.30;;;;;;5013537;28;20219;-72
2022/07/13 04:47:58;;;;;;;3.63;3.33;;;22.20;90.10;;;;;;5009776;28;20558;-73
2022/07/13 04:50:23;;;;;;;5.90;3.20;;;22.20;90.40;;;;;;5010660;28;20471;-71
2022/07/13 04:52:49;;;;;;;3.80;3.03;;;22.20;90.30;;;;;;5011398;28;20443;-71
2022/07/13 04:55:16;;;;;;;3.00;2.80;;;22.20;90.40;;;;;;5011972;28;20323;-72
2022/07/13 04:57:41;;;;;;;3.60;2.70;;;22.10;90.00;;;;;;5013583;28;20186;-72
2022/07/13 05:00:08;;;;;;;4.47;2.70;;;22.20;90.00;;;;;;5008815;28;20992;-72
2022/07/13 05:02:35;;;;;;;3.07;2.73;;;22.20;88.90;;;;;;5012539;28;20865;-72
2022/07/13 05:05:00;;;;;;;3.00;2.70;;;22.10;89.50;;;;;;5011817;28;20466;-72
2022/07/13 05:07:26;;;;;;;3.70;2.60;;;22.10;90.00;;;;;;4996220;28;20452;-72
2022/07/13 05:09:52;;;;;;;5.90;2.83;;;22.00;90.20;;;;;;5010074;28;20242;-72
2022/07/13 05:12:17;;;;;;;6.57;3.77;;;22.00;90.60;;;;;;5013292;28;20203;-72
2022/07/13 05:14:43;;;;;;;5.77;3.60;;;22.00;90.80;;;;;;5009862;28;20204;-72
2022/07/13 05:17:08;;;;;;;7.47;3.87;;;22.10;90.80;;;;;;4992777;28;20181;-72
2022/07/13 05:19:34;;;;;;;11.37;4.50;;;22.20;90.40;;;;;;5008048;28;20199;-72
2022/07/13 05:22:00;;;;;;;13.30;4.40;;;22.30;90.20;;;;;;5010614;28;20189;-72
2022/07/13 05:24:25;;;;;;;6.20;3.90;;;22.30;90.10;;;;;;5012124;28;20698;-72
2022/07/13 05:26:51;;;;;;;4.47;3.63;;;22.40;90.00;;;;;;5011078;28;20188;-72
2022/07/13 05:29:16;;;;;;;5.07;3.30;;;22.50;90.10;;;;;;4996522;28;20687;-73
2022/07/13 05:31:42;;;;;;;3.70;3.30;;;22.60;90.00;;;;;;5012251;28;20180;-73
2022/07/13 05:34:08;;;;;;;3.53;2.93;;;22.60;89.70;;;;;;5010759;28;20228;-73
2022/07/13 05:36:34;;;;;;;8.20;3.10;;;22.70;90.10;;;;;;5009266;28;20764;-73
2022/07/13 05:38:59;;;;;;;4.57;3.07;;;22.80;89.50;;;;;;5011311;28;20734;-72
2022/07/13 05:41:27;;;;;;;3.80;3.23;;;22.90;89.40;;;;;;5012409;28;20940;-72
2022/07/13 05:43:52;;;;;;;7.17;6.47;;;23.00;89.20;;;;;;5009077;28;20216;-72
2022/07/13 05:46:18;;;;;;;3.17;2.87;;;23.00;88.30;;;;;;5007576;28;20436;-73
2022/07/13 05:48:43;;;;;;;4.67;2.90;;;22.90;87.20;;;;;;5008000;28;20506;-71
2022/07/13 05:51:09;;;;;;;4.97;2.67;;;22.90;87.40;;;;;;5011019;28;20195;-72
2022/07/13 05:53:34;;;;;;;4.83;3.50;;;22.90;87.90;;;;;;5011998;28;20324;-72
2022/07/13 05:56:00;;;;;;;5.83;3.50;;;23.00;88.30;;;;;;5007442;28;20608;-72
2022/07/13 05:58:26;;;;;;;7.83;4.53;;;23.10;88.30;;;;;;5005950;28;20268;-72
2022/07/13 06:00:51;;;;;;;5.37;4.20;;;23.20;89.20;;;;;;5005616;28;20185;-72
2022/07/13 06:03:17;;;;;;;3.60;3.30;;;23.30;89.40;;;;;;4998558;28;20193;-72
2022/07/13 06:05:43;;;;;;;6.43;3.77;;;23.40;89.70;;;;;;5007496;28;20193;-72
2022/07/13 06:08:08;;;;;;;7.20;4.57;;;23.30;90.00;;;;;;4989155;28;20192;-72
2022/07/13 06:10:34;;;;;;;5.43;4.00;;;23.30;90.10;;;;;;5003879;28;20249;-72
2022/07/13 06:13:00;;;;;;;6.63;4.93;;;23.40;90.20;;;;;;4994401;28;20185;-71
2022/07/13 06:15:25;;;;;;;7.37;5.90;;;23.60;90.20;;;;;;5007508;28;20204;-71
2022/07/13 06:17:51;;;;;;;6.67;4.40;;;23.70;90.10;;;;;;5003203;28;20436;-71
2022/07/13 06:20:17;;;;;;;4.90;3.77;;;23.80;89.80;;;;;;4990842;28;20597;-72
2022/07/13 06:22:42;;;;;;;6.60;4.47;;;23.80;89.00;;;;;;5005605;28;20194;-72
2022/07/13 06:25:08;;;;;;;3.53;3.20;;;23.80;89.30;;;;;;5005195;28;20302;-72
2022/07/13 06:27:34;;;;;;;5.63;3.97;;;23.80;89.50;;;;;;5008501;28;20220;-73
2022/07/13 06:30:06;;;;;;;6.97;4.10;;;23.80;89.90;;;;;;5007924;28;20989;-72
2022/07/13 06:32:32;;;;;;;5.70;3.53;;;23.90;90.00;;;;;;5008169;28;20207;-73
2022/07/13 06:34:58;;;;;;;9.30;4.00;;;23.90;89.70;;;;;;5008554;28;20467;-73
2022/07/13 06:37:23;;;;;;;6.40;3.60;;;24.00;89.70;;;;;;5011042;28;20180;-72
2022/07/13 06:39:49;;;;;;;5.93;3.60;;;24.00;89.60;;;;;;5006341;28;20189;-76
2022/07/13 06:42:14;;;;;;;5.40;4.20;;;24.20;89.10;;;;;;5010617;28;20237;-72
2022/07/13 06:44:40;;;;;;;6.47;4.43;;;24.20;89.40;;;;;;5027065;22;20287;-75
2022/07/13 06:47:06;;;;;;;6.20;4.17;;;24.40;88.90;;;;;;4995333;28;20189;-74
2022/07/13 06:49:31;;;;;;;6.00;4.37;;;24.50;88.70;;;;;;4996088;28;20302;-75
2022/07/13 06:51:57;;;;;;;9.70;8.70;;;24.50;89.20;;;;;;4989558;28;20653;-76
2022/07/13 06:54:23;;;;;;;5.37;4.67;;;24.60;89.60;;;;;;4992137;28;20185;-76
2022/07/13 06:56:48;;;;;;;5.00;4.40;;;24.70;88.90;;;;;;4993424;28;20173;-78
2022/07/13 06:59:14;;;;;;;6.20;3.97;;;24.60;89.40;;;;;;4994573;28;20212;-79
2022/07/13 07:01:40;;;;;;;7.30;6.07;;;24.40;90.10;;;;;;4992293;28;20668;-78
2022/07/13 07:04:05;;;;;;;7.50;5.17;;;24.50;90.30;;;;;;4993123;28;20682;-75
2022/07/13 07:06:31;;;;;;;6.03;4.20;;;24.60;90.20;;;;;;4981067;28;20285;-78
2022/07/13 07:08:58;;;;;;;5.60;4.70;;;24.60;90.30;;;;;;4995708;28;20213;-77
2022/07/13 07:11:24;;;;;;;6.83;4.50;;;24.60;90.60;;;;;;4981346;28;20211;-77
2022/07/13 07:13:50;;;;;;;6.20;4.03;;;24.60;90.50;;;;;;4999859;28;20436;-77
2022/07/13 07:16:15;;;;;;;5.13;4.17;;;24.60;90.30;;;;;;4997506;28;20185;-77
2022/07/13 07:18:41;;;;;;;7.03;5.87;;;24.70;90.20;;;;;;5005474;28;20463;-80
2022/07/13 07:21:07;;;;;;;8.30;4.37;;;24.80;90.00;;;;;;5004734;28;20181;-78
2022/07/13 07:23:32;;;;;;;4.20;3.83;;;24.90;89.10;;;;;;5009414;28;20280;-80
2022/07/13 07:25:58;;;;;;;6.60;4.30;;;25.00;88.00;;;;;;5000572;28;20181;-79
2022/07/13 07:28:24;;;;;;;8.27;4.67;;;25.00;88.00;;;;;;5008048;28;20240;-80
2022/07/13 07:30:52;;;;;;;5.77;4.10;;;25.10;87.90;;;;;;5003704;28;20475;-80
2022/07/13 07:33:18;;;;;;;4.60;3.97;;;25.30;87.30;;;;;;4995371;28;20184;-78
2022/07/13 07:35:44;;;;;;;4.30;3.30;;;25.50;86.80;;;;;;5002662;28;20425;-80
2022/07/13 07:38:09;;;;;;;5.30;3.77;;;25.50;85.60;;;;;;5001684;28;20199;-78
2022/07/13 07:40:35;;;;;;;4.77;3.90;;;25.60;85.40;;;;;;4999030;28;20177;-76
2022/07/13 07:43:01;;;;;;;7.83;6.00;;;25.70;84.90;;;;;;4994644;28;20185;-77
2022/07/13 07:45:27;;;;;;;5.20;4.50;;;25.70;85.10;;;;;;4998817;28;20202;-84
2022/07/13 07:47:52;;;;;;;5.13;4.23;;;25.80;83.50;;;;;;4993724;28;20446;-83
2022/07/13 07:50:18;;;;;;;5.30;3.33;;;25.80;83.60;;;;;;5002090;28;20749;-77
2022/07/13 07:52:43;;;;;;;5.73;3.63;;;25.70;82.10;;;;;;4996393;28;20210;-76
2022/07/13 07:55:09;;;;;;;5.13;3.60;;;25.60;81.40;;;;;;4996902;28;20276;-79
2022/07/13 07:57:46;;;;;;;6.90;3.40;;;25.70;79.90;;;;;;4985707;28;20200;-78
2022/07/13 08:00:12;;;;;;;6.63;6.03;;;25.80;79.90;;;;;;4994890;28;20661;-78
2022/07/13 08:02:38;;;;;;;6.07;4.30;;;25.80;80.30;;;;;;4982172;28;20456;-81
2022/07/13 08:05:05;;;;;;;7.03;3.87;;;25.60;80.00;;;;;;4995904;28;20470;-76
2022/07/13 08:07:31;;;;;;;6.10;3.90;;;25.50;80.40;;;;;;4982770;28;20190;-78
2022/07/13 08:09:56;;;;;;;3.70;3.00;;;25.50;80.80;;;;;;4989966;28;20541;-79
2022/07/13 08:12:22;;;;;;;4.63;4.10;;;25.50;79.70;;;;;;5000393;28;20264;-74
2022/07/13 08:15:36;;;;;;;5.53;4.10;;;25.30;78.50;;;;;;5001055;28;20177;-76
2022/07/13 08:18:02;;;;;;;4.20;3.50;;;25.40;79.10;;;;;;4972886;28;20279;-74
2022/07/13 08:20:27;;;;;;;3.77;3.47;;;25.40;79.50;;;;;;4995498;28;20439;-76
2022/07/13 08:22:53;;;;;;;3.27;2.97;;;25.50;78.90;;;;;;4995712;28;20189;-80
2022/07/13 08:25:19;;;;;;;9.43;5.17;;;25.50;78.10;;;;;;4980268;28;20268;-79
2022/07/13 08:27:44;;;;;;;3.93;3.53;;;25.60;77.80;;;;;;4997259;28;20189;-79
2022/07/13 08:30:20;;;;;;;4.70;3.10;;;25.60;78.00;;;;;;5000679;28;20224;-79
2022/07/13 08:33:03;;;;;;;2.97;2.77;;;25.60;78.20;;;;;;4995643;28;20566;-78
2022/07/13 08:40:57;;;;;;;4.17;2.57;;;25.80;77.50;;;;;;5001583;28;20455;-74
2022/07/13 08:43:26;;;;;;;3.63;2.90;;;25.80;77.00;;;;;;4995857;28;20448;-75
2022/07/13 08:45:51;;;;;;;3.60;2.87;;;25.80;77.10;;;;;;4999372;28;20276;-76
2022/07/13 08:48:21;;;;;;;3.27;2.97;;;25.80;76.40;;;;;;5003391;28;20574;-75
2022/07/13 08:50:48;;;;;;;3.13;2.83;;;25.80;78.10;;;;;;4998395;28;21165;-76
2022/07/13 08:53:14;;;;;;;4.03;2.60;;;25.90;75.10;;;;;;4997064;28;20440;-73
2022/07/13 08:55:41;;;;;;;4.90;2.70;;;26.00;75.10;;;;;;5001546;28;20429;-76
2022/07/13 08:58:09;;;;;;;3.30;2.50;;;26.10;74.20;;;;;;4985126;28;20454;-75
2022/07/13 09:00:34;;;;;;;3.53;2.63;;;26.20;73.00;;;;;;4982523;28;20432;-76
2022/07/13 09:09:44;;;;;;;4.33;2.77;;;26.40;69.70;;;;;;4995417;28;21147;-77
2022/07/13 09:12:18;;;;;;;2.90;2.60;;;26.30;68.60;;;;;;5000996;28;20442;-80
2022/07/13 09:15:00;;;;;;;3.30;2.80;;;26.30;68.90;;;;;;5002003;28;20196;-76
2022/07/13 09:17:37;;;;;;;2.90;2.60;;;26.40;67.60;;;;;;5002578;28;20436;-76
2022/07/13 09:20:12;;;;;;;4.50;2.60;;;26.40;67.20;;;;;;4998935;28;20494;-76
2022/07/13 09:22:53;;;;;;;2.70;2.50;;;26.50;67.30;;;;;;4995266;28;20447;-82
2022/07/13 09:25:25;;;;;;;2.90;2.20;;;26.60;68.10;;;;;;4998233;28;20539;-78
2022/07/13 09:27:52;;;;;;;3.13;2.60;;;26.60;68.50;;;;;;4997680;28;20812;-78
2022/07/13 09:30:26;;;;;;;2.70;2.50;;;26.70;68.10;;;;;;4994693;28;20551;-79
2022/07/13 09:32:53;;;;;;;4.60;2.40;;;26.70;66.60;;;;;;4994796;28;20502;-80
2022/07/13 09:35:20;;;;;;;3.00;2.70;;;26.80;65.30;;;;;;5000438;28;20457;-79
2022/07/13 09:37:46;;;;;;;3.40;2.40;;;27.00;65.20;;;;;;4999187;28;20437;-78
2022/07/13 09:40:17;;;;;;;2.53;2.33;;;27.10;64.30;;;;;;4999801;28;20458;-79
2022/07/13 09:42:43;;;;;;;2.97;2.67;;;27.00;64.00;;;;;;4997366;28;20288;-78
2022/07/13 09:47:59;;;;;;;3.37;2.47;;;27.40;65.20;;;;;;4991068;28;20521;-76
2022/07/13 09:50:51;;;;;;;2.73;2.53;;;27.70;62.10;;;;;;4993154;28;20468;-77
2022/07/13 09:53:25;;;;;;;4.10;3.10;;;27.80;62.90;;;;;;4984320;28;20440;-78
2022/07/13 09:55:52;;;;;;;5.40;2.50;;;28.10;61.30;;;;;;4997345;28;20460;-77
2022/07/13 09:58:27;;;;;;;2.53;2.30;;;28.30;62.20;;;;;;4980564;28;20456;-76
2022/07/13 10:00:55;;;;;;;5.80;2.60;;;28.40;60.50;;;;;;4998285;28;20451;-79
2022/07/13 10:03:22;;;;;;;4.90;3.03;;;28.40;60.20;;;;;;4994889;28;20446;-76
2022/07/13 10:05:49;;;;;;;6.23;3.60;;;28.50;60.60;;;;;;4998345;28;20565;-76
2022/07/13 10:08:16;;;;;;;2.67;2.47;;;28.40;58.90;;;;;;4977244;28;20467;-78
2022/07/13 10:10:44;;;;;;;4.57;2.40;;;28.70;58.60;;;;;;4997084;28;20467;-76
2022/07/13 10:13:11;;;;;;;6.13;2.70;;;28.80;58.20;;;;;;4998749;28;20444;-75
2022/07/13 10:15:37;;;;;;;2.80;2.50;;;28.80;58.20;;;;;;5000410;28;20520;-75
2022/07/13 10:18:05;;;;;;;4.53;3.03;;;28.90;57.70;;;;;;4998502;28;20456;-76
2022/07/13 10:20:33;;;;;;;2.80;2.60;;;28.80;57.80;;;;;;4999394;28;20444;-75
2022/07/13 10:22:59;;;;;;;3.50;3.20;;;28.70;57.90;;;;;;5001089;28;20461;-76
2022/07/13 10:25:40;;;;;;;2.83;2.63;;;28.80;58.40;;;;;;4997093;28;20476;-76
2022/07/13 10:28:13;;;;;;;4.37;3.70;;;28.80;58.60;;;;;;5022811;22;20598;-76
2022/07/13 10:30:44;;;;;;;3.10;2.60;;;28.90;58.60;;;;;;5017774;28;20509;-76
2022/07/13 10:34:22;;;;;;;;;;;;;;;;;;;;;
2022/07/13 10:36:57;;;;;;;2.53;2.33;;;28.80;59.00;;;;;;5007561;28;20446;-75
2022/07/13 10:39:29;;;;;;;2.80;2.60;;;28.60;55.90;;;;;;5021163;28;20474;-74
2022/07/13 10:41:58;;;;;;;3.07;2.70;;;28.60;56.40;;;;;;5012962;28;20570;-77
2022/07/13 10:44:41;;;;;;;2.53;2.33;;;28.60;55.80;;;;;;5014852;28;20454;-76
2022/07/13 10:47:15;;;;;;;3.17;2.87;;;28.50;56.00;;;;;;5017282;28;20423;-75
2022/07/13 10:49:47;;;;;;;2.80;2.60;;;28.50;56.00;;;;;;5019646;28;20470;-77
2022/07/13 10:52:23;;;;;;;3.00;2.70;;;28.50;53.70;;;;;;5017645;28;20459;-78
2022/07/13 10:57:31;;;;;;;2.97;2.67;;;28.60;55.70;;;;;;5017287;28;20502;-78
2022/07/13 11:00:13;;;;;;;3.37;2.50;;;28.60;53.90;;;;;;5012080;28;20474;-77
2022/07/13 11:02:55;;;;;;;2.60;2.40;;;28.70;53.20;;;;;;5015870;28;20440;-78
2022/07/13 11:05:25;;;;;;;3.57;2.60;;;28.90;52.10;;;;;;5018387;28;20463;-76
2022/07/13 11:07:51;;;;;;;2.73;2.53;;;28.90;53.70;;;;;;5012542;28;20439;-77
2022/07/13 11:10:30;;;;;;;2.80;2.60;;;28.90;55.60;;;;;;5012569;28;20974;-78
2022/07/13 11:12:57;;;;;;;3.07;2.50;;;28.90;54.80;;;;;;5014590;28;21048;-77
2022/07/13 11:15:23;;;;;;;2.80;2.60;;;29.00;57.20;;;;;;5016842;28;20434;-78
2022/07/13 11:17:53;;;;;;;2.40;2.20;;;29.00;52.70;;;;;;5016533;28;20426;-77
2022/07/13 11:20:19;;;;;;;3.00;2.50;;;29.10;49.90;;;;;;5023453;28;20176;-78
2022/07/13 11:25:47;;;;;;;2.47;2.27;;;29.30;49.00;;;;;;5018306;28;20195;-77
2022/07/13 11:28:31;;;;;;;3.20;2.80;;;29.40;52.40;;;;;;5019459;28;21118;-78
2022/07/13 11:30:56;;;;;;;2.60;2.40;;;29.60;51.10;;;;;;4996582;28;20533;-79
2022/07/13 11:33:23;;;;;;;3.00;2.50;;;29.60;50.10;;;;;;5019782;28;20950;-78
2022/07/13 11:35:49;;;;;;;2.50;2.30;;;29.70;49.60;;;;;;5002679;28;20219;-79
2022/07/13 11:38:16;;;;;;;2.50;2.30;;;29.90;51.20;;;;;;5016496;28;20505;-79
2022/07/13 11:40:43;;;;;;;2.77;2.57;;;30.10;52.40;;;;;;5001183;28;20947;-78
2022/07/13 11:43:10;;;;;;;6.23;2.90;;;30.30;49.80;;;;;;5002636;28;20982;-77
2022/07/13 11:45:39;;;;;;;8.27;2.53;;;30.60;50.00;;;;;;5020805;28;20450;-77
2022/07/13 11:48:06;;;;;;;4.57;2.47;;;31.00;49.50;;;;;;5018663;28;20466;-75
2022/07/13 11:50:43;;;;;;;2.80;2.60;;;31.30;48.30;;;;;;5018748;28;20492;-75
2022/07/13 11:53:18;;;;;;;2.70;2.43;;;31.60;48.20;;;;;;5023606;28;20443;-78
2022/07/13 11:55:43;;;;;;;2.87;2.67;;;31.80;47.70;;;;;;5032913;28;20872;-80
2022/07/13 11:58:28;;;;;;;2.70;2.50;;;32.20;48.00;;;;;;5031447;28;20487;-78
2022/07/13 12:00:58;;;;;;;2.63;2.43;;;32.80;48.10;;;;;;5004104;28;20688;-78
2022/07/13 12:03:32;;;;;;;6.80;3.23;;;33.10;47.30;;;;;;5032600;28;20412;-78
2022/07/13 12:06:09;;;;;;;4.03;2.90;;;33.50;46.80;;;;;;5011409;28;20469;-80
2022/07/13 12:08:40;;;;;;;2.67;2.37;;;33.90;46.80;;;;;;5031846;28;20968;-80
2022/07/13 12:11:09;;;;;;;2.80;2.60;;;34.90;45.60;;;;;;5016242;28;20525;-79
2022/07/13 12:13:36;;;;;;;2.60;2.40;;;34.90;44.80;;;;;;5023973;28;20826;-80
2022/07/13 12:16:06;;;;;;;3.87;2.50;;;34.90;44.80;;;;;;5008619;28;20432;-79
2022/07/13 12:19:03;;;;;;;2.50;2.30;;;34.70;43.50;;;;;;5008082;28;20498;-80
2022/07/13 12:21:29;;;;;;;2.60;2.40;;;34.10;43.80;;;;;;5011553;28;20442;-80
2022/07/13 12:23:54;;;;;;;2.60;2.40;;;34.50;44.40;;;;;;5012720;28;20418;-80
2022/07/13 12:26:20;;;;;;;2.60;2.40;;;34.40;43.80;;;;;;5035122;28;20421;-81
2022/07/13 12:28:46;;;;;;;2.50;2.30;;;34.30;44.40;;;;;;5016702;28;20256;-81
2022/07/13 12:31:11;;;;;;;2.60;2.40;;;34.90;44.10;;;;;;5031090;28;20262;-79
2022/07/13 12:33:46;;;;;;;2.60;2.40;;;35.50;43.50;;;;;;5032901;28;20203;-83
2022/07/13 12:36:13;;;;;;;4.63;2.43;;;35.70;42.40;;;;;;5017472;28;20975;-81
2022/07/13 12:38:59;;;;;;;2.50;2.30;;;35.90;41.40;;;;;;5042119;28;20505;-82
2022/07/13 12:41:35;;;;;;;3.83;2.80;;;36.10;41.20;;;;;;5046201;28;20433;-87
2022/07/13 12:44:05;;;;;;;9.13;2.53;;;36.10;42.00;;;;;;5051204;28;20427;-88
2022/07/13 12:46:50;;;;;;;4.13;2.90;;;35.40;42.40;;;;;;5052926;28;20436;-87
2022/07/13 12:49:16;;;;;;;4.17;3.80;;;35.20;42.90;;;;;;5046712;28;20521;-85
2022/07/13 12:51:46;;;;;;;3.30;2.57;;;35.10;43.40;;;;;;5033881;28;20435;-86
2022/07/13 12:54:12;;;;;;;11.07;2.53;;;35.00;43.50;;;;;;5052864;28;20332;-86
2022/07/13 12:56:52;;;;;;;3.03;2.20;;;35.00;42.80;;;;;;5039049;28;20443;-85
2022/07/13 12:59:24;;;;;;;3.23;2.40;;;34.70;43.40;;;;;;5036887;28;20454;-87
2022/07/13 13:01:50;;;;;;;2.73;2.53;;;34.40;43.70;;;;;;5032714;28;21182;-83
2022/07/13 13:04:17;;;;;;;3.87;2.40;;;34.20;42.70;;;;;;5034596;28;20517;-85
2022/07/13 13:06:45;;;;;;;3.20;2.27;;;33.90;42.90;;;;;;5021514;28;20223;-85
2022/07/13 13:09:18;;;;;;;3.10;2.10;;;33.40;42.40;;;;;;5032245;28;20469;-86
2022/07/13 13:11:46;;;;;;;3.10;2.80;;;33.10;41.80;;;;;;5034033;28;20781;-86
2022/07/13 13:14:21;;;;;;;2.63;2.43;;;33.10;41.70;;;;;;5019592;28;21280;-84